createdAt,value
2018-12-13T00:01:48.835Z,102165.71
2018-12-13T00:05:13.724Z,102155.56
2018-12-13T00:08:38.400Z,102147.95
2018-12-13T00:12:03.183Z,102148.72
2018-12-13T00:15:31.805Z,102145.17
2018-12-13T00:18:56.585Z,102138.52
2018-12-13T00:22:21.266Z,102142.78
2018-12-13T00:25:45.991Z,102143.81
2018-12-13T00:29:10.706Z,102141.77
2018-12-13T00:32:35.394Z,102136.31
2018-12-13T00:36:00.086Z,102131.62
2018-12-13T00:39:24.781Z,102128.57
2018-12-13T00:42:49.472Z,102132.30
2018-12-13T00:46:14.190Z,102128.75
2018-12-13T00:49:38.884Z,102121.52
2018-12-13T00:53:03.703Z,102124.91
2018-12-13T00:56:28.328Z,102120.69
2018-12-13T00:59:53.062Z,102123.91
2018-12-13T01:03:17.763Z,102111.37
2018-12-13T01:06:45.965Z,102104.94
2018-12-13T01:10:09.566Z,102098.59
2018-12-13T01:13:34.298Z,102113.09
2018-12-13T01:16:58.996Z,102104.23
2018-12-13T01:20:23.678Z,102093.09
2018-12-13T01:23:48.390Z,102091.88
2018-12-13T01:30:35.722Z,102102.19
2018-12-13T01:34:00.446Z,102102.88
2018-12-13T01:37:25.132Z,102105.23
2018-12-13T01:40:49.989Z,102096.81
2018-12-13T01:44:14.706Z,102092.33
2018-12-13T01:47:39.453Z,102087.91
2018-12-13T01:51:04.166Z,102090.58
2018-12-13T01:54:28.822Z,102090.19
2018-12-13T01:57:53.610Z,102089.07
2018-12-13T02:01:18.293Z,102080.22
2018-12-13T02:04:42.957Z,102082.93
2018-12-13T02:08:07.829Z,102079.42
2018-12-13T02:11:32.611Z,102076.05
2018-12-13T02:14:57.379Z,102073.66
2018-12-13T02:18:22.093Z,102064.32
2018-12-13T02:21:46.784Z,102067.45
2018-12-13T02:25:11.453Z,102060.53
2018-12-13T02:28:36.159Z,102063.13
2018-12-13T02:32:00.914Z,102059.55
2018-12-13T02:35:25.615Z,102060.17
2018-12-13T02:38:50.373Z,102050.31
2018-12-13T02:42:15.373Z,102059.23
2018-12-13T02:45:40.120Z,102055.72
2018-12-13T02:49:11.477Z,102060.42
2018-12-13T02:52:36.191Z,102056.98
2018-12-13T02:56:00.853Z,102055.86
2018-12-13T02:59:25.581Z,102048.87
2018-12-13T03:02:50.279Z,102050.23
2018-12-13T03:06:14.972Z,102054.98
2018-12-13T03:09:39.646Z,102045.44
2018-12-13T03:13:04.324Z,102036.20
2018-12-13T03:16:29.007Z,102034.41
2018-12-13T03:19:53.759Z,102029.28
2018-12-13T03:23:18.442Z,102025.19
2018-12-13T03:26:43.167Z,102017.95
2018-12-13T03:30:08.327Z,102016.30
2018-12-13T03:33:33.035Z,102008.79
2018-12-13T03:36:57.726Z,102004.78
2018-12-13T03:40:22.456Z,102002.96
2018-12-13T03:43:47.163Z,102003.52
2018-12-13T03:47:11.896Z,101994.61
2018-12-13T03:50:36.634Z,101991.88
2018-12-13T03:54:01.322Z,101990.16
2018-12-13T03:57:26.083Z,101988.85
2018-12-13T04:00:50.753Z,101983.94
2018-12-13T04:04:15.429Z,101992.01
2018-12-13T04:07:40.124Z,101986.52
2018-12-13T04:11:04.854Z,101989.61
2018-12-13T04:14:29.539Z,101980.73
2018-12-13T04:17:54.209Z,101980.70
2018-12-13T04:21:18.851Z,101984.98
2018-12-13T04:24:43.520Z,101990.77
2018-12-13T04:28:08.251Z,101983.56
2018-12-13T04:31:33.025Z,101977.58
2018-12-13T04:34:57.699Z,101977.29
2018-12-13T04:38:22.391Z,101979.05
2018-12-13T04:41:47.058Z,101980.86
2018-12-13T04:45:11.760Z,101974.78
2018-12-13T04:48:36.467Z,101974.23
2018-12-13T04:52:01.309Z,101973.81
2018-12-13T04:55:25.988Z,101969.09
2018-12-13T04:58:50.668Z,101966.34
2018-12-13T05:02:15.361Z,101969.88
2018-12-13T05:05:40.026Z,101968.28
2018-12-13T05:09:07.581Z,101979.33
2018-12-13T05:12:32.320Z,101971.76
2018-12-13T05:15:57.122Z,101972.64
2018-12-13T05:19:21.867Z,101973.39
2018-12-13T05:22:46.536Z,101975.52
2018-12-13T05:26:11.304Z,101975.39
2018-12-13T05:29:35.987Z,101972.31
2018-12-13T05:33:00.740Z,101964.80
2018-12-13T05:36:25.437Z,101965.31
2018-12-13T05:39:50.105Z,101960.56
2018-12-13T05:43:14.734Z,101957.88
2018-12-13T05:46:39.454Z,101966.95
2018-12-13T05:50:04.208Z,101969.77
2018-12-13T05:53:28.927Z,101968.13
2018-12-13T05:56:53.640Z,101973.40
2018-12-13T06:00:18.392Z,101970.22
2018-12-13T06:03:43.056Z,101966.80
2018-12-13T06:07:07.761Z,101965.10
2018-12-13T06:10:32.449Z,101962.83
2018-12-13T06:13:58.249Z,101964.73
2018-12-13T06:17:22.985Z,101966.13
2018-12-13T06:20:47.715Z,101971.59
2018-12-13T06:24:12.416Z,101963.47
2018-12-13T06:27:37.143Z,101961.23
2018-12-13T06:31:01.847Z,101964.41
2018-12-13T06:34:26.544Z,101968.40
2018-12-13T06:37:51.374Z,101971.66
2018-12-13T06:41:16.090Z,101967.58
2018-12-13T06:44:40.730Z,101972.93
2018-12-13T06:48:05.504Z,101960.13
2018-12-13T06:51:30.412Z,101963.75
2018-12-13T06:54:55.135Z,101970.46
2018-12-13T06:58:19.778Z,101964.15
2018-12-13T07:01:44.755Z,101961.17
2018-12-13T07:05:09.608Z,101961.17
2018-12-13T07:08:34.329Z,101967.38
2018-12-13T07:11:59.058Z,101969.16
2018-12-13T07:15:23.789Z,101973.73
2018-12-13T07:18:48.467Z,101978.17
2018-12-13T07:22:13.200Z,101974.59
2018-12-13T07:25:37.922Z,101980.71
2018-12-13T07:29:02.622Z,101984.36
2018-12-13T07:32:27.330Z,101983.93
2018-12-13T07:35:51.979Z,101985.76
2018-12-13T07:39:16.669Z,101992.37
2018-12-13T07:42:41.338Z,101995.80
2018-12-13T07:46:06.134Z,101995.03
2018-12-13T07:49:32.338Z,101996.73
2018-12-13T07:52:57.069Z,101993.14
2018-12-13T07:56:21.762Z,101987.02
2018-12-13T07:59:46.451Z,101995.78
2018-12-13T08:03:11.153Z,101994.98
2018-12-13T08:06:35.961Z,102003.02
2018-12-13T08:10:00.612Z,102011.02
2018-12-13T08:13:25.382Z,102000.67
2018-12-13T08:16:50.170Z,102003.66
2018-12-13T08:20:14.802Z,102005.01
2018-12-13T08:23:39.519Z,102007.46
2018-12-13T08:27:04.241Z,102007.91
2018-12-13T08:30:28.921Z,102008.37
2018-12-13T08:33:53.699Z,102018.11
2018-12-13T08:37:18.420Z,102016.98
2018-12-13T08:40:43.323Z,102010.17
2018-12-13T08:44:08.060Z,102012.92
2018-12-13T08:47:32.709Z,102015.56
2018-12-13T08:50:57.403Z,102015.81
2018-12-13T08:54:22.104Z,102011.18
2018-12-13T08:57:46.762Z,102008.45
2018-12-13T09:01:11.541Z,102002.87
2018-12-13T09:04:36.314Z,102003.20
2018-12-13T09:08:01.104Z,102001.14
2018-12-13T09:11:26.019Z,102006.05
2018-12-13T09:14:50.772Z,102001.42
2018-12-13T09:18:15.491Z,102002.79
2018-12-13T09:21:40.216Z,101997.19
2018-12-13T09:25:05.373Z,101992.92
2018-12-13T09:28:30.060Z,101999.33
2018-12-13T09:31:55.057Z,102007.65
2018-12-13T09:35:19.770Z,102009.89
2018-12-13T09:38:44.658Z,102001.09
2018-12-13T09:42:14.790Z,101995.50
2018-12-13T09:45:39.480Z,101993.05
2018-12-13T09:49:04.233Z,101999.43
2018-12-13T09:52:28.972Z,101993.55
2018-12-13T09:55:53.657Z,101987.48
2018-12-13T09:59:18.385Z,101995.38
2018-12-13T10:02:43.085Z,101982.81
2018-12-13T10:06:07.793Z,101984.55
2018-12-13T10:09:32.496Z,101972.87
2018-12-13T10:12:57.165Z,101970.06
2018-12-13T10:16:21.871Z,101966.97
2018-12-13T10:19:46.619Z,101961.34
2018-12-13T10:23:11.543Z,101950.22
2018-12-13T10:26:36.287Z,101950.05
2018-12-13T10:30:01.026Z,101949.90
2018-12-13T10:33:25.739Z,101942.88
2018-12-13T10:36:50.493Z,101945.86
2018-12-13T10:40:15.233Z,101949.35
2018-12-13T10:43:39.963Z,101943.11
2018-12-13T10:47:05.289Z,101935.89
2018-12-13T10:50:30.010Z,101934.00
2018-12-13T10:53:54.763Z,101933.66
2018-12-13T10:57:19.451Z,101922.22
2018-12-13T11:00:49.441Z,101923.30
2018-12-13T11:04:14.167Z,101924.96
2018-12-13T11:07:38.813Z,101924.35
2018-12-13T11:11:03.609Z,101920.75
2018-12-13T11:14:28.291Z,101912.47
2018-12-13T11:17:52.992Z,101909.63
2018-12-13T11:21:17.710Z,101909.72
2018-12-13T11:24:42.375Z,101910.80
2018-12-13T11:31:25.627Z,101904.27
2018-12-13T11:34:50.390Z,101901.84
2018-12-13T11:38:15.113Z,101899.90
2018-12-13T11:41:39.853Z,101899.03
2018-12-13T11:45:04.591Z,101886.05
2018-12-13T11:48:29.317Z,101888.66
2018-12-13T11:51:53.994Z,101877.73
2018-12-13T11:55:38.055Z,101884.48
2018-12-13T11:59:02.762Z,101874.45
2018-12-13T12:02:27.455Z,101873.11
2018-12-13T12:05:52.211Z,101873.62
2018-12-13T12:09:16.933Z,101864.09
2018-12-13T12:12:41.708Z,101869.38
2018-12-13T12:16:06.389Z,101863.83
2018-12-13T12:19:31.069Z,101861.42
2018-12-13T12:22:55.801Z,101865.70
2018-12-13T12:26:20.529Z,101860.07
2018-12-13T12:29:45.192Z,101857.33
2018-12-13T12:33:09.870Z,101856.45
2018-12-13T12:36:34.735Z,101849.45
2018-12-13T12:39:59.441Z,101844.56
2018-12-13T12:43:24.170Z,101843.37
2018-12-13T12:46:48.921Z,101840.19
2018-12-13T12:50:13.618Z,101837.53
2018-12-13T12:53:38.341Z,101838.06
2018-12-13T12:57:03.073Z,101837.56
2018-12-13T13:00:27.726Z,101841.08
2018-12-13T13:03:52.535Z,101839.91
2018-12-13T13:07:17.264Z,101833.66
2018-12-13T13:10:42.061Z,101826.66
2018-12-13T13:14:06.774Z,101823.36
2018-12-13T13:17:31.465Z,101821.95
2018-12-13T13:20:56.174Z,101817.34
2018-12-13T13:24:20.831Z,101814.47
2018-12-13T13:27:45.468Z,101810.89
2018-12-13T13:31:10.188Z,101811.10
2018-12-13T13:34:34.861Z,101807.41
2018-12-13T13:37:59.525Z,101808.09
2018-12-13T13:41:24.227Z,101806.02
2018-12-13T13:44:51.064Z,101796.44
2018-12-13T13:48:15.786Z,101800.23
2018-12-13T13:51:40.537Z,101796.04
2018-12-13T13:55:06.026Z,101806.87
2018-12-13T13:58:30.709Z,101801.11
2018-12-13T14:01:55.444Z,101797.41
2018-12-13T14:05:20.193Z,101797.95
2018-12-13T14:08:44.964Z,101797.45
2018-12-13T14:12:09.648Z,101801.62
2018-12-13T14:15:34.337Z,101801.46
2018-12-13T14:18:59.009Z,101817.45
2018-12-13T14:22:23.741Z,101820.84
2018-12-13T14:25:48.414Z,101816.81
2018-12-13T14:29:13.227Z,101816.34
2018-12-13T14:32:38.000Z,101816.56
2018-12-13T14:36:02.695Z,101812.93
2018-12-13T14:39:27.414Z,101818.75
2018-12-13T14:42:52.099Z,101817.84
2018-12-13T14:46:16.785Z,101816.34
2018-12-13T14:49:41.664Z,101822.96
2018-12-13T14:53:06.522Z,101818.10
2018-12-13T14:56:31.225Z,101820.78
2018-12-13T14:59:55.923Z,101830.30
2018-12-13T15:03:20.614Z,101827.75
2018-12-13T15:06:45.393Z,101828.73
2018-12-13T15:10:10.262Z,101829.34
2018-12-13T15:13:35.018Z,101828.39
2018-12-13T15:16:59.947Z,101831.06
2018-12-13T15:20:24.649Z,101828.72
2018-12-13T15:23:49.359Z,101834.52
2018-12-13T15:27:14.114Z,101834.46
2018-12-13T15:30:38.829Z,101834.97
2018-12-13T15:34:03.650Z,101834.25
2018-12-13T15:37:28.445Z,101834.25
2018-12-13T15:40:53.174Z,101838.75
2018-12-13T15:44:17.874Z,101843.35
2018-12-13T15:47:42.734Z,101840.13
2018-12-13T15:51:07.529Z,101842.94
2018-12-13T15:54:32.257Z,101847.59
2018-12-13T15:57:56.939Z,101851.25
2018-12-13T16:01:21.668Z,101851.34
2018-12-13T16:04:46.384Z,101848.53
2018-12-13T16:08:11.094Z,101852.85
2018-12-13T16:11:35.831Z,101850.74
2018-12-13T16:15:00.578Z,101845.67
2018-12-13T16:18:25.297Z,101851.34
2018-12-13T16:21:50.016Z,101851.57
2018-12-13T16:25:14.776Z,101852.91
2018-12-13T16:28:39.560Z,101853.34
2018-12-13T16:32:04.339Z,101860.72
2018-12-13T16:35:29.094Z,101849.55
2018-12-13T16:38:53.758Z,101853.23
2018-12-13T16:42:18.567Z,101846.94
2018-12-13T16:45:43.448Z,101845.73
2018-12-13T16:49:08.340Z,101843.77
2018-12-13T16:52:33.039Z,101847.10
2018-12-13T16:55:57.745Z,101845.52
2018-12-13T16:59:39.835Z,101840.52
2018-12-13T17:03:20.085Z,101843.86
2018-12-13T17:06:44.795Z,101846.23
2018-12-13T17:10:16.572Z,101847.98
2018-12-13T17:13:37.100Z,101849.06
2018-12-13T17:17:01.850Z,101855.09
2018-12-13T17:20:26.606Z,101853.99
2018-12-13T17:23:51.514Z,101857.58
2018-12-13T17:27:16.289Z,101858.25
2018-12-13T17:30:41.073Z,101852.72
2018-12-13T17:34:05.851Z,101850.30
2018-12-13T17:37:30.618Z,101850.66
2018-12-13T17:40:55.321Z,101853.61
2018-12-13T17:44:20.103Z,101852.65
2018-12-13T17:47:44.779Z,101853.45
2018-12-13T17:51:09.464Z,101854.44
2018-12-13T17:54:34.265Z,101859.98
2018-12-13T17:57:58.947Z,101853.73
2018-12-13T18:01:23.863Z,101860.20
2018-12-13T18:04:48.564Z,101853.45
2018-12-13T18:08:13.253Z,101851.61
2018-12-13T18:11:38.102Z,101846.64
2018-12-13T18:15:02.864Z,101859.53
2018-12-13T18:18:27.558Z,101853.26
2018-12-13T18:21:52.219Z,101855.94
2018-12-13T18:25:16.893Z,101855.73
2018-12-13T18:28:41.729Z,101857.45
2018-12-13T18:32:06.621Z,101848.33
2018-12-13T18:35:31.358Z,101847.34
2018-12-13T18:38:56.118Z,101856.07
2018-12-13T18:42:20.957Z,101849.31
2018-12-13T18:45:45.869Z,101850.48
2018-12-13T18:49:10.706Z,101850.39
2018-12-13T18:52:36.437Z,101847.98
2018-12-13T18:56:02.502Z,101852.73
2018-12-13T18:59:27.284Z,101852.44
2018-12-13T19:02:51.991Z,101857.28
2018-12-13T19:06:16.739Z,101864.48
2018-12-13T19:09:41.436Z,101864.09
2018-12-13T19:13:06.232Z,101875.77
2018-12-13T19:16:31.047Z,101873.73
2018-12-13T19:19:55.878Z,101875.53
2018-12-13T19:23:20.669Z,101875.45
2018-12-13T19:26:45.529Z,101878.22
2018-12-13T19:30:10.976Z,101881.40
2018-12-13T19:33:35.710Z,101883.89
2018-12-13T19:37:00.406Z,101890.43
2018-12-13T19:40:25.345Z,101890.53
2018-12-13T19:43:50.454Z,101894.25
2018-12-13T19:47:15.156Z,101892.19
2018-12-13T19:50:41.100Z,101892.00
2018-12-13T19:54:06.477Z,101892.23
2018-12-13T19:57:31.567Z,101884.17
2018-12-13T20:00:56.554Z,101885.64
2018-12-13T20:04:22.951Z,101890.23
2018-12-13T20:07:49.968Z,101890.83
2018-12-13T20:11:16.110Z,101896.89
2018-12-13T20:14:41.128Z,101899.85
2018-12-13T20:18:06.491Z,101896.87
2018-12-13T20:21:31.852Z,101902.39
2018-12-13T20:24:57.902Z,101905.02
2018-12-13T20:28:22.962Z,101910.98
2018-12-13T20:31:47.953Z,101916.02
2018-12-13T20:35:14.655Z,101918.62
2018-12-13T20:38:40.337Z,101916.61
2018-12-13T20:42:05.247Z,101924.70
2018-12-13T20:45:32.074Z,101931.41
2018-12-13T20:48:58.358Z,101929.50
2018-12-13T20:52:24.448Z,101930.49
2018-12-13T20:55:49.635Z,101937.91
2018-12-13T20:59:14.501Z,101943.92
2018-12-13T21:03:08.919Z,101952.13
2018-12-13T21:06:34.042Z,101948.72
2018-12-13T21:09:59.087Z,101951.58
2018-12-13T21:13:23.904Z,101946.94
2018-12-13T21:16:48.969Z,101950.67
2018-12-13T21:20:13.937Z,101945.15
2018-12-13T21:23:38.665Z,101938.68
2018-12-13T21:27:03.399Z,101938.11
2018-12-13T21:30:28.180Z,101938.86
2018-12-13T21:33:52.860Z,101934.12
2018-12-13T21:37:17.653Z,101935.02
2018-12-13T21:40:42.321Z,101935.11
2018-12-13T21:44:06.993Z,101932.11
2018-12-13T21:47:31.696Z,101924.42
2018-12-13T21:50:57.428Z,101923.18
2018-12-13T21:54:22.202Z,101927.56
2018-12-13T21:57:47.012Z,101930.66
2018-12-13T22:01:11.770Z,101932.13
2018-12-13T22:04:36.499Z,101936.20
2018-12-13T22:08:01.288Z,101929.11
2018-12-13T22:11:25.968Z,101938.59
2018-12-13T22:14:50.678Z,101935.43
2018-12-13T22:18:15.395Z,101941.03
2018-12-13T22:21:40.121Z,101933.73
2018-12-13T22:25:05.601Z,101940.89
2018-12-13T22:28:30.344Z,101936.58
2018-12-13T22:31:55.330Z,101927.02
2018-12-13T22:35:19.950Z,101935.06
2018-12-13T22:38:44.643Z,101935.52
2018-12-13T22:42:09.040Z,101932.02
2018-12-13T22:45:33.755Z,101931.53
2018-12-13T22:48:58.428Z,101928.06
2018-12-13T22:52:23.095Z,101932.06
2018-12-13T22:55:47.761Z,101934.90
2018-12-13T22:59:12.411Z,101932.20
2018-12-13T23:02:37.037Z,101932.23
2018-12-13T23:06:01.841Z,101936.20
2018-12-13T23:09:26.474Z,101939.28
2018-12-13T23:12:51.126Z,101938.83
2018-12-13T23:16:15.756Z,101936.36
2018-12-13T23:19:40.403Z,101931.81
2018-12-13T23:23:05.254Z,101930.38
2018-12-13T23:26:29.947Z,101927.06
2018-12-13T23:29:54.605Z,101923.52
2018-12-13T23:33:19.236Z,101917.27
2018-12-13T23:36:43.904Z,101925.31
2018-12-13T23:40:08.591Z,101930.79
2018-12-13T23:43:33.276Z,101927.79
2018-12-13T23:46:57.966Z,101928.32
2018-12-13T23:50:22.693Z,101924.31
2018-12-13T23:53:47.391Z,101929.56
2018-12-13T23:57:12.078Z,101925.98
